KBDG

Blanding Municipal Airport

Blanding, Utah, USA
METAR KBDG 230955Z AUTO 09006KT 10SM M06/M13 A3006 RMK AO1 T10651134
Observed Flight Rules
Feb-23 @ 09:55 UTC (29 minutes ago)
Wind Visibility
90° at 6 knots 10 miles
Temperatures Readings
Current -7°C / 19°F
Dewpoint -13°C / 9°F
Humidity 63%
Altimeter 30.06" Hg
Pressure 1018 hPa
Elevation 1788
METAR KBDG 230955Z AUTO 09006KT 10SM M06/M13 A3006 RMK AO1 T10651134
Observed Flight Rules
Feb-23 @ 09:55 UTC
(29 minutes ago)
Wind Visibility
90° at 6 knots 10 miles
Temperature Dewpoint
-7°C / 19°F -13°C / 9°F
Humidity Altimeter Pressure
63% 30.06" Hg 1018 hPa